Time;durP1;ratioP1;P1;durP2;ratioP2;P2;SDS_P1;SDS_P2;PMS_P1;PMS_P2;Temp;Humidity;BMP_temperature;BMP_pressure;BME280_temperature;BME280_humidity;BME280_pressure;Samples;Min_cycle;Max_cycle;Signal;HPM_P1;HPM_P2
2024/01/19 00:01:41;;;;;;;13.43;7.97;;;;;;;;;;5028680;28;20269;-75
2024/01/19 00:04:07;;;;;;;13.40;7.45;;;;;;;;;;5030110;28;20083;-75
2024/01/19 00:06:32;;;;;;;14.57;7.75;;;;;;;;;;5041159;28;20052;-75
2024/01/19 00:08:58;;;;;;;15.00;8.88;;;;;;;;;;5027249;28;20060;-75
2024/01/19 00:11:23;;;;;;;11.70;5.82;;;;;;;;;;5037901;28;20037;-76
2024/01/19 00:13:49;;;;;;;16.00;9.25;;;;;;;;;;5022502;28;20465;-73
2024/01/19 00:16:14;;;;;;;13.45;7.40;;;;;;;;;;5033640;28;20062;-75
2024/01/19 00:18:39;;;;;;;15.27;8.18;;;;;;;;;;5032029;28;20505;-73
2024/01/19 00:21:05;;;;;;;9.77;6.15;;;;;;;;;;5038531;28;20120;-75
2024/01/19 00:23:30;;;;;;;15.43;7.82;;;;;;;;;;5015237;28;20396;-74
2024/01/19 00:25:56;;;;;;;6.15;3.90;;;;;;;;;;5029614;28;20735;-76
2024/01/19 00:28:21;;;;;;;6.80;4.22;;;;;;;;;;5023552;28;20040;-76
2024/01/19 00:30:46;;;;;;;6.88;4.15;;;;;;;;;;5028752;28;20045;-73
2024/01/19 00:33:12;;;;;;;16.35;8.18;;;;;;;;;;5031150;28;20040;-75
2024/01/19 00:35:37;;;;;;;13.73;8.23;;;;;;;;;;5031071;28;20040;-75
2024/01/19 00:38:03;;;;;;;13.73;8.60;;;;;;;;;;5014169;28;20042;-75
2024/01/19 00:40:29;;;;;;;13.95;7.35;;;;;;;;;;5029725;28;20053;-75
2024/01/19 00:42:54;;;;;;;15.43;10.63;;;;;;;;;;5037420;28;20094;-75
2024/01/19 00:45:19;;;;;;;20.83;11.02;;;;;;;;;;5030976;28;20152;-75
2024/01/19 00:47:45;;;;;;;13.68;8.60;;;;;;;;;;5032923;28;20036;-76
2024/01/19 00:50:10;;;;;;;16.08;9.63;;;;;;;;;;5032801;28;20045;-75
2024/01/19 00:52:36;;;;;;;15.43;9.18;;;;;;;;;;5024389;28;20126;-75
2024/01/19 00:55:02;;;;;;;8.45;5.30;;;;;;;;;;5035756;28;20129;-72
2024/01/19 00:57:28;;;;;;;16.67;9.32;;;;;;;;;;5024842;28;20041;-75
2024/01/19 00:59:54;;;;;;;15.77;9.48;;;;;;;;;;5030443;28;20045;-74
2024/01/19 01:02:20;;;;;;;16.08;8.75;;;;;;;;;;5022220;28;20090;-74
2024/01/19 01:04:46;;;;;;;15.70;9.10;;;;;;;;;;5032100;28;20029;-73
2024/01/19 01:07:11;;;;;;;9.38;4.65;;;;;;;;;;5025335;28;20043;-75
2024/01/19 01:09:36;;;;;;;14.90;7.60;;;;;;;;;;5024949;28;20113;-75
2024/01/19 01:12:02;;;;;;;16.40;8.10;;;;;;;;;;5038133;28;20098;-76
2024/01/19 01:14:28;;;;;;;11.88;6.65;;;;;;;;;;5042916;28;20500;-75
2024/01/19 01:16:53;;;;;;;12.82;8.18;;;;;;;;;;5035164;28;20048;-74
2024/01/19 01:19:19;;;;;;;11.98;7.90;;;;;;;;;;5041435;28;20041;-73
2024/01/19 01:21:44;;;;;;;13.98;8.30;;;;;;;;;;5031932;28;20080;-75
2024/01/19 01:24:09;;;;;;;10.52;5.88;;;;;;;;;;5048092;28;20087;-75
2024/01/19 01:26:35;;;;;;;11.80;6.35;;;;;;;;;;5033717;28;20538;-77
2024/01/19 01:29:00;;;;;;;9.07;6.25;;;;;;;;;;5043532;28;20123;-74
2024/01/19 01:31:25;;;;;;;17.23;9.15;;;;;;;;;;5033410;28;20055;-75
2024/01/19 01:33:51;;;;;;;16.17;9.85;;;;;;;;;;5030906;28;20644;-73
2024/01/19 01:36:16;;;;;;;16.83;9.45;;;;;;;;;;5030821;28;20125;-74
2024/01/19 01:38:41;;;;;;;16.75;8.75;;;;;;;;;;5040255;28;20056;-76
2024/01/19 01:41:07;;;;;;;19.02;10.02;;;;;;;;;;5037912;28;20033;-74
2024/01/19 01:43:33;;;;;;;15.23;9.23;;;;;;;;;;5033854;28;20525;-75
2024/01/19 01:45:58;;;;;;;13.23;7.22;;;;;;;;;;5048272;28;20524;-75
2024/01/19 01:48:24;;;;;;;13.07;7.88;;;;;;;;;;5040924;28;20497;-73
2024/01/19 01:50:50;;;;;;;17.88;8.90;;;;;;;;;;5027071;28;20038;-73
2024/01/19 01:53:18;;;;;;;15.95;9.13;;;;;;;;;;5049402;28;20046;-76
2024/01/19 01:55:46;;;;;;;18.85;11.02;;;;;;;;;;5051459;28;20432;-75
2024/01/19 01:58:14;;;;;;;15.30;8.18;;;;;;;;;;5041122;28;20045;-73
2024/01/19 02:00:42;;;;;;;13.43;7.85;;;;;;;;;;5029912;28;20080;-75
2024/01/19 02:03:08;;;;;;;29.30;12.73;;;;;;;;;;5024863;28;20041;-75
2024/01/19 02:05:33;;;;;;;31.52;12.68;;;;;;;;;;5031241;28;20654;-76
2024/01/19 02:07:59;;;;;;;20.30;8.65;;;;;;;;;;5034145;28;20855;-75
2024/01/19 02:10:24;;;;;;;14.88;6.88;;;;;;;;;;5027550;28;20048;-75
2024/01/19 02:12:50;;;;;;;6.43;4.00;;;;;;;;;;5010647;28;20059;-75
2024/01/19 02:15:23;;;;;;;5.90;3.58;;;;;;;;;;5038653;28;20028;-74
2024/01/19 02:17:50;;;;;;;5.75;3.80;;;;;;;;;;5032323;28;20445;-75
2024/01/19 02:20:16;;;;;;;5.60;4.20;;;;;;;;;;5045368;28;20087;-72
2024/01/19 02:22:46;;;;;;;9.88;4.53;;;;;;;;;;5036530;28;20511;-73
2024/01/19 02:25:12;;;;;;;7.45;4.35;;;;;;;;;;5033526;28;20037;-75
2024/01/19 02:27:38;;;;;;;6.90;3.90;;;;;;;;;;5039628;28;20505;-75
2024/01/19 02:30:06;;;;;;;5.40;3.05;;;;;;;;;;5030482;28;20055;-76
2024/01/19 02:32:32;;;;;;;8.02;5.05;;;;;;;;;;5040198;28;20037;-74
2024/01/19 02:34:57;;;;;;;15.88;5.70;;;;;;;;;;5046160;28;22654;-76
2024/01/19 02:37:23;;;;;;;11.85;5.82;;;;;;;;;;5038013;28;20036;-75
2024/01/19 02:39:49;;;;;;;5.75;3.42;;;;;;;;;;5036325;28;20049;-75
2024/01/19 02:42:14;;;;;;;7.30;5.15;;;;;;;;;;5052776;28;20606;-74
2024/01/19 02:44:40;;;;;;;12.93;6.88;;;;;;;;;;5035448;28;20734;-73
2024/01/19 02:47:05;;;;;;;9.52;5.57;;;;;;;;;;5035191;28;20104;-74
2024/01/19 02:49:31;;;;;;;11.65;7.00;;;;;;;;;;5038236;28;20571;-74
2024/01/19 02:51:56;;;;;;;12.43;7.55;;;;;;;;;;5018831;28;20037;-73
2024/01/19 02:54:21;;;;;;;15.40;7.82;;;;;;;;;;5040009;28;20678;-75
2024/01/19 02:56:47;;;;;;;14.73;7.55;;;;;;;;;;5046513;28;20087;-75
2024/01/19 02:59:12;;;;;;;13.85;6.97;;;;;;;;;;5011741;28;20033;-75
2024/01/19 03:01:37;;;;;;;12.18;6.68;;;;;;;;;;5036524;28;20094;-75
2024/01/19 03:04:03;;;;;;;9.57;5.95;;;;;;;;;;5030281;28;20107;-75
2024/01/19 03:06:29;;;;;;;10.23;5.68;;;;;;;;;;5039576;28;20048;-74
2024/01/19 03:08:54;;;;;;;16.08;6.78;;;;;;;;;;5043686;28;20932;-75
2024/01/19 03:11:19;;;;;;;16.10;9.43;;;;;;;;;;5031718;28;20058;-76
2024/01/19 03:13:45;;;;;;;16.83;8.60;;;;;;;;;;5038074;28;20043;-75
2024/01/19 03:16:10;;;;;;;14.18;8.52;;;;;;;;;;5042191;28;20163;-74
2024/01/19 03:18:35;;;;;;;14.02;7.93;;;;;;;;;;5025854;28;20508;-76
2024/01/19 03:21:01;;;;;;;12.85;7.85;;;;;;;;;;5019286;28;20034;-73
2024/01/19 03:23:26;;;;;;;13.13;6.90;;;;;;;;;;5014518;28;20041;-76
2024/01/19 03:25:51;;;;;;;12.35;7.90;;;;;;;;;;5026009;28;20037;-73
2024/01/19 03:28:17;;;;;;;13.75;8.00;;;;;;;;;;5010896;28;20140;-75
2024/01/19 03:30:42;;;;;;;16.00;7.90;;;;;;;;;;5020311;28;20049;-75
2024/01/19 03:33:08;;;;;;;16.55;9.27;;;;;;;;;;5023778;28;20522;-75
2024/01/19 03:35:33;;;;;;;14.70;7.32;;;;;;;;;;5023427;28;20543;-72
2024/01/19 03:37:58;;;;;;;14.20;7.50;;;;;;;;;;5028513;28;20549;-75
2024/01/19 03:40:24;;;;;;;16.42;7.60;;;;;;;;;;5014611;28;20041;-76
2024/01/19 03:42:49;;;;;;;13.75;7.43;;;;;;;;;;5010377;28;20117;-75
2024/01/19 03:45:15;;;;;;;15.00;8.20;;;;;;;;;;5015425;28;20038;-75
2024/01/19 03:47:41;;;;;;;11.15;6.25;;;;;;;;;;5029372;28;20378;-75
2024/01/19 03:50:08;;;;;;;11.50;6.70;;;;;;;;;;5042568;28;20038;-75
2024/01/19 03:52:34;;;;;;;13.88;7.13;;;;;;;;;;5028625;28;20078;-73
2024/01/19 03:54:59;;;;;;;15.43;8.30;;;;;;;;;;5016151;28;20026;-76
2024/01/19 03:57:25;;;;;;;14.95;7.72;;;;;;;;;;5016982;28;20448;-75
2024/01/19 03:59:50;;;;;;;16.42;7.35;;;;;;;;;;5030939;28;20029;-74
2024/01/19 04:02:15;;;;;;;10.88;5.85;;;;;;;;;;5027375;28;20045;-76
2024/01/19 04:04:41;;;;;;;12.30;6.32;;;;;;;;;;5017690;28;20522;-76
2024/01/19 04:07:06;;;;;;;5.75;3.55;;;;;;;;;;5025764;28;20615;-74
2024/01/19 04:09:32;;;;;;;3.85;2.45;;;;;;;;;;5030564;28;20043;-76
2024/01/19 04:11:57;;;;;;;3.85;2.50;;;;;;;;;;5021784;28;20037;-72
2024/01/19 04:14:22;;;;;;;3.95;2.17;;;;;;;;;;5026022;28;20037;-76
2024/01/19 04:16:48;;;;;;;2.22;1.55;;;;;;;;;;5030769;28;20033;-74
2024/01/19 04:19:14;;;;;;;4.32;2.60;;;;;;;;;;5030632;28;20060;-75
2024/01/19 04:21:39;;;;;;;4.05;2.42;;;;;;;;;;5031498;28;20075;-75
2024/01/19 04:24:05;;;;;;;10.43;6.25;;;;;;;;;;5029056;28;20037;-75
2024/01/19 04:26:30;;;;;;;6.70;4.10;;;;;;;;;;5011630;28;20037;-73
2024/01/19 04:28:56;;;;;;;10.55;5.18;;;;;;;;;;5019513;28;20560;-74
2024/01/19 04:31:22;;;;;;;7.82;4.55;;;;;;;;;;5031552;28;20037;-75
2024/01/19 04:33:47;;;;;;;2.35;1.63;;;;;;;;;;5026082;28;20041;-75
2024/01/19 04:36:13;;;;;;;3.88;2.55;;;;;;;;;;5030296;28;20028;-75
2024/01/19 04:38:38;;;;;;;2.97;1.10;;;;;;;;;;5015367;28;20033;-72
2024/01/19 04:41:04;;;;;;;3.22;1.73;;;;;;;;;;5019002;28;22951;-73
2024/01/19 04:43:30;;;;;;;4.38;2.17;;;;;;;;;;5035195;28;20033;-75
2024/01/19 04:45:55;;;;;;;2.47;1.75;;;;;;;;;;5031894;28;20594;-76
2024/01/19 04:48:20;;;;;;;4.53;2.40;;;;;;;;;;5021138;28;20505;-75
2024/01/19 04:50:46;;;;;;;3.50;2.28;;;;;;;;;;5018244;28;20576;-75
2024/01/19 04:53:11;;;;;;;4.22;1.27;;;;;;;;;;5028741;28;20090;-75
2024/01/19 04:55:37;;;;;;;7.35;2.22;;;;;;;;;;5004843;28;20161;-74
2024/01/19 04:58:02;;;;;;;3.65;2.33;;;;;;;;;;5029650;28;20045;-75
2024/01/19 05:00:27;;;;;;;4.72;2.83;;;;;;;;;;5019434;28;20043;-74
2024/01/19 05:02:54;;;;;;;3.70;2.45;;;;;;;;;;5020679;28;20043;-76
2024/01/19 05:05:19;;;;;;;8.35;3.17;;;;;;;;;;5035787;28;20044;-74
2024/01/19 05:07:44;;;;;;;4.20;2.05;;;;;;;;;;5033707;28;20037;-75
2024/01/19 05:10:10;;;;;;;2.55;2.00;;;;;;;;;;5024331;28;20032;-74
2024/01/19 05:12:35;;;;;;;3.08;1.67;;;;;;;;;;5013216;28;20049;-75
2024/01/19 05:15:01;;;;;;;6.88;2.65;;;;;;;;;;5032324;28;20051;-74
2024/01/19 05:17:26;;;;;;;3.92;2.42;;;;;;;;;;5015648;28;20120;-74
2024/01/19 05:19:52;;;;;;;2.65;1.58;;;;;;;;;;5031179;28;20040;-75
2024/01/19 05:22:17;;;;;;;4.45;2.30;;;;;;;;;;5032586;28;20033;-73
2024/01/19 05:24:43;;;;;;;3.47;2.33;;;;;;;;;;5024761;28;20756;-75
2024/01/19 05:27:09;;;;;;;5.43;2.67;;;;;;;;;;5021386;28;20143;-76
2024/01/19 05:29:35;;;;;;;3.30;2.10;;;;;;;;;;5037740;28;20124;-74
2024/01/19 05:32:01;;;;;;;3.33;2.40;;;;;;;;;;5025450;28;20052;-74
2024/01/19 05:34:26;;;;;;;7.03;2.63;;;;;;;;;;5022836;28;20451;-73
2024/01/19 05:36:52;;;;;;;4.07;2.55;;;;;;;;;;5036794;28;20025;-75
2024/01/19 05:39:17;;;;;;;3.83;2.47;;;;;;;;;;5004594;28;20060;-72
2024/01/19 05:41:42;;;;;;;5.95;3.05;;;;;;;;;;5029920;28;20037;-71
2024/01/19 05:44:08;;;;;;;5.38;2.88;;;;;;;;;;5041956;28;20071;-75
2024/01/19 05:46:33;;;;;;;9.35;2.80;;;;;;;;;;5030962;28;20042;-74
2024/01/19 05:48:58;;;;;;;6.93;2.92;;;;;;;;;;5023452;28;20045;-74
2024/01/19 05:51:24;;;;;;;3.47;2.13;;;;;;;;;;5032815;28;20584;-74
2024/01/19 05:53:49;;;;;;;7.13;3.60;;;;;;;;;;5002090;28;20678;-73
2024/01/19 05:56:15;;;;;;;4.43;2.40;;;;;;;;;;5014582;28;20055;-74
2024/01/19 05:58:40;;;;;;;5.15;2.47;;;;;;;;;;5022615;28;20041;-71
2024/01/19 06:01:06;;;;;;;5.50;2.83;;;;;;;;;;5026376;28;20040;-74
2024/01/19 06:03:35;;;;;;;7.35;2.95;;;;;;;;;;5025454;28;20124;-75
2024/01/19 06:06:01;;;;;;;2.58;2.03;;;;;;;;;;5026612;28;20061;-74
2024/01/19 06:08:27;;;;;;;8.10;2.70;;;;;;;;;;5024265;28;20064;-74
2024/01/19 06:10:53;;;;;;;6.22;3.00;;;;;;;;;;5031682;28;20028;-75
2024/01/19 06:13:18;;;;;;;4.95;2.35;;;;;;;;;;5009040;28;20048;-74
2024/01/19 06:15:43;;;;;;;4.38;2.33;;;;;;;;;;5033232;28;20039;-73
2024/01/19 06:18:09;;;;;;;3.88;2.38;;;;;;;;;;5029909;28;20065;-75
2024/01/19 06:20:40;;;;;;;4.07;2.30;;;;;;;;;;5016874;28;20037;-74
2024/01/19 06:23:06;;;;;;;;;;;;;;;;;;5006811;28;20128;-75
2024/01/19 06:25:31;;;;;;;2.17;0.85;;;;;;;;;;5020119;28;19912;-74
2024/01/19 06:27:59;;;;;;;6.47;2.50;;;;;;;;;;5013345;28;20624;-73
2024/01/19 06:30:25;;;;;;;3.47;1.90;;;;;;;;;;5031240;28;20044;-74
2024/01/19 06:32:50;;;;;;;2.90;1.48;;;;;;;;;;5031301;28;20041;-76
2024/01/19 06:35:16;;;;;;;4.05;2.35;;;;;;;;;;5026727;28;20581;-73
2024/01/19 06:37:41;;;;;;;2.17;1.38;;;;;;;;;;5026162;28;20041;-75
2024/01/19 06:40:07;;;;;;;2.35;1.42;;;;;;;;;;5031746;28;20164;-72
2024/01/19 06:42:32;;;;;;;6.13;2.67;;;;;;;;;;5025049;28;20519;-73
2024/01/19 06:44:58;;;;;;;4.35;2.08;;;;;;;;;;5034840;28;20036;-73
2024/01/19 06:47:23;;;;;;;5.18;2.88;;;;;;;;;;5024941;28;20147;-73
2024/01/19 06:49:48;;;;;;;4.97;1.98;;;;;;;;;;5010120;28;20029;-75
2024/01/19 06:52:14;;;;;;;1.85;1.50;;;;;;;;;;5025827;28;20679;-73
2024/01/19 06:54:39;;;;;;;2.97;1.85;;;;;;;;;;4999745;28;20036;-74
2024/01/19 06:57:05;;;;;;;2.55;1.52;;;;;;;;;;5023252;28;20044;-72
2024/01/19 06:59:32;;;;;;;5.53;2.50;;;;;;;;;;5026440;28;20366;-73
2024/01/19 07:01:57;;;;;;;3.67;2.00;;;;;;;;;;5031602;28;20060;-73
2024/01/19 07:04:23;;;;;;;8.52;2.63;;;;;;;;;;5011074;28;20037;-73
2024/01/19 07:06:48;;;;;;;5.50;2.88;;;;;;;;;;5028255;28;20485;-74
2024/01/19 07:09:13;;;;;;;6.07;2.80;;;;;;;;;;5013495;28;20040;-73
2024/01/19 07:11:39;;;;;;;3.63;2.00;;;;;;;;;;5022493;28;20114;-73
2024/01/19 07:14:04;;;;;;;5.85;2.53;;;;;;;;;;5017132;28;20057;-74
2024/01/19 07:16:30;;;;;;;6.93;3.10;;;;;;;;;;5021791;28;20422;-73
2024/01/19 07:18:55;;;;;;;3.85;2.50;;;;;;;;;;5005071;28;20037;-74
2024/01/19 07:21:20;;;;;;;5.93;3.05;;;;;;;;;;5033702;28;20657;-72
2024/01/19 07:23:46;;;;;;;4.53;2.92;;;;;;;;;;5033735;28;20029;-73
2024/01/19 07:26:11;;;;;;;7.00;3.03;;;;;;;;;;5031020;28;20073;-72
2024/01/19 07:28:36;;;;;;;5.25;2.45;;;;;;;;;;5032035;28;20045;-72
2024/01/19 07:31:02;;;;;;;3.90;2.38;;;;;;;;;;5028131;28;20037;-73
2024/01/19 07:33:28;;;;;;;8.07;3.50;;;;;;;;;;5021842;28;20060;-74
2024/01/19 07:35:54;;;;;;;10.15;4.65;;;;;;;;;;5033237;28;20040;-74
2024/01/19 07:38:19;;;;;;;13.13;5.50;;;;;;;;;;5030601;28;20036;-73
2024/01/19 07:40:45;;;;;;;6.43;2.83;;;;;;;;;;5013903;28;20037;-74
2024/01/19 07:43:10;;;;;;;4.18;2.53;;;;;;;;;;5024269;28;22143;-74
2024/01/19 07:45:35;;;;;;;7.93;4.43;;;;;;;;;;5026987;28;20052;-73
2024/01/19 07:48:01;;;;;;;8.18;3.83;;;;;;;;;;5009023;28;20033;-73
2024/01/19 07:50:26;;;;;;;6.68;1.30;;;;;;;;;;5008691;28;20042;-73
2024/01/19 07:52:51;;;;;;;6.13;4.15;;;;;;;;;;5019477;28;20035;-74
2024/01/19 07:55:17;;;;;;;8.00;2.97;;;;;;;;;;5025549;28;20038;-73
2024/01/19 07:57:42;;;;;;;11.38;3.88;;;;;;;;;;5027822;28;20968;-73
2024/01/19 08:00:08;;;;;;;6.68;2.75;;;;;;;;;;5014652;28;20048;-73
2024/01/19 08:02:34;;;;;;;6.90;3.50;;;;;;;;;;5020960;28;20120;-74
2024/01/19 08:04:59;;;;;;;1.80;1.20;;;;;;;;;;5031977;28;20131;-73
2024/01/19 08:07:26;;;;;;;5.53;2.50;;;;;;;;;;5045522;28;20456;-74
2024/01/19 08:09:51;;;;;;;5.68;3.45;;;;;;;;;;5030324;28;20458;-73
2024/01/19 08:12:17;;;;;;;10.30;3.63;;;;;;;;;;5032109;28;20029;-73
2024/01/19 08:14:42;;;;;;;1.90;1.38;;;;;;;;;;5021949;28;20128;-72
2024/01/19 08:17:08;;;;;;;4.65;2.20;;;;;;;;;;5009351;28;20498;-74
2024/01/19 08:19:33;;;;;;;5.28;2.58;;;;;;;;;;5018681;28;20049;-73
2024/01/19 08:21:59;;;;;;;5.63;3.15;;;;;;;;;;5009059;28;20040;-73
2024/01/19 08:24:24;;;;;;;7.30;3.17;;;;;;;;;;5029350;28;20041;-73
2024/01/19 08:26:49;;;;;;;11.68;4.40;;;;;;;;;;5022947;28;20037;-72
2024/01/19 08:29:15;;;;;;;7.70;4.45;;;;;;;;;;5031826;28;20074;-74
2024/01/19 08:31:43;;;;;;;5.60;2.40;;;;;;;;;;5015224;28;20112;-73
2024/01/19 08:34:09;;;;;;;7.28;3.45;;;;;;;;;;5029682;28;20034;-73
2024/01/19 08:36:40;;;;;;;8.85;4.40;;;;;;;;;;5027074;28;20100;-73
2024/01/19 08:39:05;;;;;;;12.80;4.38;;;;;;;;;;5028188;28;20084;-73
2024/01/19 08:41:30;;;;;;;7.28;3.97;;;;;;;;;;5029768;28;20029;-73
2024/01/19 08:43:56;;;;;;;9.57;3.95;;;;;;;;;;5028614;28;20462;-73
2024/01/19 08:46:21;;;;;;;4.68;2.63;;;;;;;;;;5017143;28;20445;-74
2024/01/19 08:48:47;;;;;;;2.13;1.98;;;;;;;;;;5028087;28;20048;-74
2024/01/19 08:51:20;;;;;;;12.55;5.30;;;;;;;;;;5024638;28;20107;-75
2024/01/19 08:53:45;;;;;;;7.10;3.45;;;;;;;;;;5022029;28;20120;-73
2024/01/19 08:56:11;;;;;;;10.65;4.07;;;;;;;;;;5023556;28;20147;-73
2024/01/19 08:58:37;;;;;;;8.73;4.50;;;;;;;;;;5022203;28;20548;-73
2024/01/19 09:01:03;;;;;;;3.45;2.13;;;;;;;;;;5021234;28;20026;-73
2024/01/19 09:03:29;;;;;;;9.45;4.32;;;;;;;;;;5030001;28;20029;-74
2024/01/19 09:05:54;;;;;;;9.32;4.60;;;;;;;;;;5027124;28;20048;-73
2024/01/19 09:08:19;;;;;;;6.25;2.60;;;;;;;;;;5019797;28;20050;-73
2024/01/19 09:10:45;;;;;;;5.95;2.85;;;;;;;;;;5028204;28;20084;-73
2024/01/19 09:13:10;;;;;;;9.07;3.90;;;;;;;;;;5020080;28;20115;-74
2024/01/19 09:15:35;;;;;;;12.48;4.82;;;;;;;;;;5029852;28;20037;-73
2024/01/19 09:18:01;;;;;;;9.63;4.28;;;;;;;;;;5025146;28;20075;-74
2024/01/19 09:20:26;;;;;;;5.18;2.88;;;;;;;;;;5029001;28;20033;-73
2024/01/19 09:22:51;;;;;;;11.30;4.80;;;;;;;;;;5023291;28;20029;-74
2024/01/19 09:25:16;;;;;;;5.95;3.25;;;;;;;;;;5014395;28;20040;-73
2024/01/19 09:27:42;;;;;;;15.40;5.07;;;;;;;;;;5027712;28;20049;-73
2024/01/19 09:30:08;;;;;;;10.43;4.40;;;;;;;;;;5003416;28;20054;-72
2024/01/19 09:32:33;;;;;;;5.93;3.53;;;;;;;;;;5024737;28;20120;-73
2024/01/19 09:34:58;;;;;;;10.10;4.80;;;;;;;;;;5030039;28;20053;-73
2024/01/19 09:37:24;;;;;;;8.48;4.28;;;;;;;;;;5024908;28;20162;-73
2024/01/19 09:39:49;;;;;;;11.73;5.88;;;;;;;;;;5021812;28;20136;-73
2024/01/19 09:42:27;;;;;;;12.10;5.60;;;;;;;;;;5022142;28;20060;-73
2024/01/19 09:45:04;;;;;;;3.65;2.65;;;;;;;;;;5002833;28;20042;-73
2024/01/19 09:47:45;;;;;;;1.80;1.27;;;;;;;;;;5030265;28;20036;-75
2024/01/19 09:50:17;;;;;;;10.52;5.63;;;;;;;;;;5028022;28;20043;-73
2024/01/19 09:52:55;;;;;;;9.60;3.30;;;;;;;;;;5032661;28;20576;-73
2024/01/19 09:55:23;;;;;;;9.63;4.82;;;;;;;;;;5005532;28;20048;-73
2024/01/19 09:57:48;;;;;;;13.65;6.53;;;;;;;;;;5030039;28;20108;-74
2024/01/19 10:00:16;;;;;;;11.25;6.20;;;;;;;;;;5031360;28;20174;-73
2024/01/19 10:02:52;;;;;;;11.10;4.78;;;;;;;;;;5033477;28;20548;-73
2024/01/19 10:05:18;;;;;;;12.98;5.50;;;;;;;;;;5032946;28;20037;-72
2024/01/19 10:07:47;;;;;;;13.13;6.15;;;;;;;;;;5016271;28;20052;-72
2024/01/19 10:10:13;;;;;;;10.68;5.30;;;;;;;;;;5032540;28;20040;-73
2024/01/19 10:12:39;;;;;;;7.97;3.28;;;;;;;;;;5023023;28;20393;-73
2024/01/19 10:15:15;;;;;;;9.02;4.25;;;;;;;;;;5022284;28;20179;-75
2024/01/19 10:17:42;;;;;;;14.07;5.82;;;;;;;;;;5027132;28;20041;-72
2024/01/19 10:20:12;;;;;;;10.00;4.53;;;;;;;;;;5017942;28;20048;-74
2024/01/19 10:22:39;;;;;;;5.03;2.92;;;;;;;;;;5026923;28;20044;-73
2024/01/19 10:25:10;;;;;;;5.32;3.30;;;;;;;;;;5029575;28;20037;-74
2024/01/19 10:27:41;;;;;;;2.63;1.40;;;;;;;;;;5032904;28;20124;-74
2024/01/19 10:30:24;;;;;;;8.98;4.43;;;;;;;;;;5028129;28;20790;-74
2024/01/19 10:32:52;;;;;;;13.88;5.75;;;;;;;;;;5007177;28;20050;-73
2024/01/19 10:35:19;;;;;;;7.82;3.50;;;;;;;;;;5027606;28;20603;-75
2024/01/19 10:37:46;;;;;;;8.48;3.67;;;;;;;;;;5027437;28;20099;-73
2024/01/19 10:40:28;;;;;;;10.63;4.82;;;;;;;;;;5035431;28;20092;-74
2024/01/19 10:42:56;;;;;;;10.95;3.70;;;;;;;;;;5035307;28;20052;-73
2024/01/19 10:45:28;;;;;;;17.17;6.25;;;;;;;;;;5017953;28;20123;-73
2024/01/19 10:47:57;;;;;;;9.23;4.65;;;;;;;;;;5036514;28;20060;-73
2024/01/19 10:50:26;;;;;;;8.50;5.07;;;;;;;;;;5016568;28;20124;-75
2024/01/19 10:52:53;;;;;;;6.65;3.20;;;;;;;;;;5028680;28;20057;-73
2024/01/19 10:55:25;;;;;;;14.57;6.45;;;;;;;;;;5035627;28;20043;-72
2024/01/19 10:58:04;;;;;;;9.68;4.07;;;;;;;;;;5018922;28;20039;-73
2024/01/19 11:00:29;;;;;;;15.63;7.43;;;;;;;;;;5031237;28;20083;-74
2024/01/19 11:03:00;;;;;;;11.23;5.30;;;;;;;;;;5028380;28;20568;-73
2024/01/19 11:05:26;;;;;;;;;;;;;;;;;;5028938;28;20056;-74
2024/01/19 11:07:53;;;;;;;6.57;2.85;;;;;;;;;;5028699;28;20111;-73
2024/01/19 11:10:20;;;;;;;15.05;6.60;;;;;;;;;;5018262;28;20125;-73
2024/01/19 11:12:56;;;;;;;4.68;2.63;;;;;;;;;;5028729;28;20068;-72
2024/01/19 11:15:47;;;;;;;3.17;2.28;;;;;;;;;;5025643;28;20039;-75
2024/01/19 11:18:14;;;;;;;;;;;;;;;;;;5029622;28;20119;-74
2024/01/19 11:20:39;;;;;;;8.98;4.43;;;;;;;;;;5025690;28;19927;-74
2024/01/19 11:23:06;;;;;;;12.65;5.43;;;;;;;;;;5030306;28;20049;-74
2024/01/19 11:25:58;;;;;;;13.77;6.20;;;;;;;;;;5031895;28;20049;-74
2024/01/19 11:28:43;;;;;;;;;;;;;;;;;;5024145;28;20040;-75
2024/01/19 11:31:15;;;;;;;7.93;3.78;;;;;;;;;;5021676;28;20336;-75
2024/01/19 11:33:40;;;;;;;14.75;6.80;;;;;;;;;;5029857;28;20640;-74
2024/01/19 11:36:06;;;;;;;10.75;4.93;;;;;;;;;;5026125;28;20127;-73
2024/01/19 11:38:45;;;;;;;7.45;2.45;;;;;;;;;;5030983;28;20044;-73
2024/01/19 11:41:32;;;;;;;7.60;3.63;;;;;;;;;;5018000;28;20172;-75
2024/01/19 11:43:59;;;;;;;16.45;5.93;;;;;;;;;;4998302;28;20247;-73
2024/01/19 11:46:44;;;;;;;13.75;5.68;;;;;;;;;;5018500;28;20055;-73
2024/01/19 11:49:30;;;;;;;11.88;6.25;;;;;;;;;;5038339;28;20690;-74
2024/01/19 11:52:00;;;;;;;16.65;8.38;;;;;;;;;;5030737;28;20071;-73
2024/01/19 11:54:26;;;;;;;17.73;8.70;;;;;;;;;;5003332;28;20044;-73
2024/01/19 11:56:52;;;;;;;19.67;8.77;;;;;;;;;;5034245;28;20063;-74
2024/01/19 11:59:21;;;;;;;10.63;5.63;;;;;;;;;;5034132;28;20044;-73
2024/01/19 12:01:46;;;;;;;13.90;6.55;;;;;;;;;;5027237;28;20564;-73
2024/01/19 12:04:14;;;;;;;2.38;2.05;;;;;;;;;;5027790;28;20036;-73
2024/01/19 12:06:40;;;;;;;11.50;5.07;;;;;;;;;;5010399;28;20481;-73
2024/01/19 12:09:09;;;;;;;9.75;4.65;;;;;;;;;;5022169;28;20048;-74
2024/01/19 12:11:35;;;;;;;14.73;6.70;;;;;;;;;;5018551;28;20041;-73
2024/01/19 12:14:03;;;;;;;13.50;6.18;;;;;;;;;;5022062;28;20037;-73
2024/01/19 12:16:30;;;;;;;8.05;4.35;;;;;;;;;;5026723;28;20033;-73
2024/01/19 12:18:57;;;;;;;17.25;7.63;;;;;;;;;;5021661;28;20107;-75
2024/01/19 12:21:23;;;;;;;18.40;7.25;;;;;;;;;;5014498;28;20060;-74
2024/01/19 12:24:07;;;;;;;10.90;4.47;;;;;;;;;;5023159;28;20573;-74
2024/01/19 12:26:33;;;;;;;18.15;7.32;;;;;;;;;;5026623;28;20048;-73
2024/01/19 12:28:59;;;;;;;10.43;5.57;;;;;;;;;;5027568;28;20041;-73
2024/01/19 12:31:36;;;;;;;13.63;5.40;;;;;;;;;;5025653;28;20140;-72
2024/01/19 12:34:15;;;;;;;12.13;6.47;;;;;;;;;;5006721;28;20105;-73
2024/01/19 12:36:41;;;;;;;16.67;6.00;;;;;;;;;;5029077;28;20041;-75
2024/01/19 12:39:11;;;;;;;12.07;6.05;;;;;;;;;;5028378;28;20033;-74
2024/01/19 12:41:37;;;;;;;12.35;5.63;;;;;;;;;;5020305;28;20126;-75
2024/01/19 12:44:03;;;;;;;6.75;2.90;;;;;;;;;;5031621;28;20044;-73
2024/01/19 12:46:29;;;;;;;12.63;6.18;;;;;;;;;;5013977;28;20148;-74
2024/01/19 12:49:02;;;;;;;6.35;3.35;;;;;;;;;;5030376;28;20105;-74
2024/01/19 12:51:28;;;;;;;15.52;6.30;;;;;;;;;;5023553;28;20083;-72
2024/01/19 12:53:54;;;;;;;15.75;5.97;;;;;;;;;;5027258;28;20048;-73
2024/01/19 12:56:28;;;;;;;9.57;5.00;;;;;;;;;;5032353;28;20078;-73
2024/01/19 12:59:11;;;;;;;15.65;6.85;;;;;;;;;;5020371;28;20037;-74
2024/01/19 13:01:41;;;;;;;12.82;5.80;;;;;;;;;;5027568;28;20057;-74
2024/01/19 13:04:06;;;;;;;13.55;6.10;;;;;;;;;;5030239;28;20518;-73
2024/01/19 13:06:32;;;;;;;14.25;5.78;;;;;;;;;;5018030;28;20091;-74
2024/01/19 13:08:57;;;;;;;3.13;1.77;;;;;;;;;;5028002;28;20049;-74
2024/01/19 13:11:23;;;;;;;7.28;3.70;;;;;;;;;;5003687;28;20044;-73
2024/01/19 13:14:04;;;;;;;13.15;5.70;;;;;;;;;;5031292;28;20041;-74
2024/01/19 13:16:31;;;;;;;9.80;4.53;;;;;;;;;;5032483;28;20747;-74
2024/01/19 13:19:03;;;;;;;18.00;6.85;;;;;;;;;;5035963;28;20037;-74
2024/01/19 13:21:30;;;;;;;13.63;5.82;;;;;;;;;;5000458;28;20125;-73
2024/01/19 13:23:56;;;;;;;11.77;6.30;;;;;;;;;;5025318;28;20040;-75
2024/01/19 13:26:21;;;;;;;13.02;5.78;;;;;;;;;;5026526;28;20048;-74
2024/01/19 13:28:47;;;;;;;13.35;5.68;;;;;;;;;;5034035;28;20036;-73
2024/01/19 13:31:15;;;;;;;5.00;2.78;;;;;;;;;;5031089;28;20074;-73
2024/01/19 13:33:42;;;;;;;15.18;6.40;;;;;;;;;;5029411;28;20037;-75
2024/01/19 13:36:09;;;;;;;9.05;4.55;;;;;;;;;;5024874;28;20026;-73
2024/01/19 13:38:34;;;;;;;12.45;4.40;;;;;;;;;;5035074;28;20077;-74
2024/01/19 13:41:00;;;;;;;12.98;5.13;;;;;;;;;;5035384;28;20148;-73
2024/01/19 13:43:25;;;;;;;6.18;3.35;;;;;;;;;;5039996;28;20048;-74
2024/01/19 13:45:51;;;;;;;10.55;5.20;;;;;;;;;;5026318;28;20034;-75
2024/01/19 13:48:18;;;;;;;15.05;5.88;;;;;;;;;;5030484;28;20048;-73
2024/01/19 13:50:44;;;;;;;5.65;3.30;;;;;;;;;;5033580;28;20040;-74
2024/01/19 13:53:09;;;;;;;14.93;5.95;;;;;;;;;;5040295;28;20625;-73
2024/01/19 13:55:34;;;;;;;9.02;2.85;;;;;;;;;;5037263;28;20037;-73
2024/01/19 13:58:00;;;;;;;17.58;6.07;;;;;;;;;;5022410;28;20040;-73
2024/01/19 14:00:25;;;;;;;7.88;3.45;;;;;;;;;;5022405;28;20071;-73
2024/01/19 14:02:51;;;;;;;11.50;5.03;;;;;;;;;;5022200;28;20509;-76
2024/01/19 14:05:17;;;;;;;11.45;5.75;;;;;;;;;;5016480;28;20038;-74
2024/01/19 14:07:43;;;;;;;10.40;4.05;;;;;;;;;;5022955;28;20051;-73
2024/01/19 14:10:08;;;;;;;8.43;4.13;;;;;;;;;;5022994;28;20033;-73
2024/01/19 14:12:34;;;;;;;15.73;5.43;;;;;;;;;;5015756;28;20055;-74
2024/01/19 14:14:59;;;;;;;14.27;5.70;;;;;;;;;;5038349;28;20043;-73
2024/01/19 14:17:24;;;;;;;8.80;3.92;;;;;;;;;;5029572;28;20059;-73
2024/01/19 14:19:50;;;;;;;12.88;5.97;;;;;;;;;;5018036;28;20047;-74
2024/01/19 14:22:15;;;;;;;15.55;5.68;;;;;;;;;;5023272;28;20037;-74
2024/01/19 14:24:40;;;;;;;11.77;3.67;;;;;;;;;;5030453;28;20155;-75
2024/01/19 14:27:06;;;;;;;9.52;4.53;;;;;;;;;;5031606;28;20037;-74
2024/01/19 14:29:32;;;;;;;11.38;4.95;;;;;;;;;;5025359;28;20571;-73
2024/01/19 14:31:59;;;;;;;13.13;5.38;;;;;;;;;;5022031;28;20045;-74
2024/01/19 14:34:25;;;;;;;11.77;4.43;;;;;;;;;;5013584;28;20123;-73
2024/01/19 14:36:51;;;;;;;11.05;5.03;;;;;;;;;;5019977;28;20057;-74